Latest Weather Observations for Griffith

IDN60801

Issued at 5:05 pm EDT Thursday 29 January 2015 (issued every 30 minutes, with the page automatically refreshed every 10 minutes)

About weather observations | Map of weather stations | Latest weather observations for NSW | Other Formats
Station Details ID: 075041 Name: GRIFFITH AIRPORT AWS Lat: -34.25 Lon: 146.07 Height: 134.0 m
Data from the previous 72 hours. | See also: Recent months at Griffith
Date/Time
EDT
Temp
°C
App
Temp
°C
Dew
Point
Rel
Hum
%
Delta-T
°C
Wind Press
QNH
hPa
Press
MSL
hPa
Rain
since 9 am
mm
Dir
 
Spd
km/h
Gust
km/h
Spd
kts
Gust
kts
29/05:00pm 26.2 20.7 4.1 24 11.1 S 22 33 12 18 1011.3 1010.6 0.0
29/04:30pm 26.8 22.8 5.1 25 11.2 SW 15 30 8 16 1011.6 1010.9 0.0
29/04:00pm 26.4 22.2 5.9 27 10.7 S 17 33 9 18 1011.9 1011.2 0.0
29/03:30pm 25.8 23.2 5.9 28 10.3 S 9 15 5 8 1012.2 1011.5 0.0
29/03:00pm 26.3 21.7 6.3 28 10.5 SSE 20 33 11 18 1012.7 1012.0 0.0
29/02:30pm 25.1 22.0 7.3 32 9.4 S 13 24 7 13 1013.1 1012.4 0.0
29/02:00pm 23.7 20.0 7.8 36 8.4 SE 17 28 9 15 1013.5 1012.8 0.0
29/01:30pm 23.7 21.2 8.2 37 8.3 SSE 11 24 6 13 1013.8 1013.1 0.0
29/01:00pm 23.5 20.3 8.4 38 8.1 SSE 15 22 8 12 1014.4 1013.8 0.0
29/12:30pm 22.5 18.8 7.9 39 7.7 ESE 17 28 9 15 1014.7 1014.1 0.0
29/12:00pm 22.1 18.4 7.9 40 7.5 SE 17 28 9 15 1015.0 1014.4 0.0
29/11:30am 22.2 17.9 6.8 37 7.9 E 19 26 10 14 1015.3 1014.7 0.0
29/11:00am 21.9 17.6 7.7 40 7.4 ESE 20 26 11 14 1015.5 1014.9 0.0
29/10:30am 21.3 16.3 7.9 42 7.0 ESE 24 32 13 17 1015.3 1014.7 0.0
29/10:00am 20.7 15.7 8.0 44 6.6 ESE 24 32 13 17 1015.4 1014.8 0.0
29/09:30am 19.9 14.3 7.3 44 6.5 ESE 26 35 14 19 1015.4 1014.8 0.0
29/09:00am 19.1 13.2 7.5 47 5.9 E 28 33 15 18 1015.1 1014.5 0.0
29/08:30am 18.7 13.2 7.5 48 5.7 E 26 35 14 19 1014.7 1014.1 0.0
29/08:00am 18.5 13.5 7.9 50 5.4 E 24 33 13 18 1014.4 1013.8 0.0
29/07:30am 18.1 13.0 7.8 51 5.3 E 24 32 13 17 1014.1 1013.5 0.0
29/07:00am 17.9 13.9 8.2 53 5.0 E 19 24 10 13 1013.8 1013.1 0.0
29/06:30am 17.2 12.9 7.8 54 4.8 E 20 28 11 15 1013.5 1012.8 0.0
29/06:00am 17.7 13.4 8.0 53 5.0 E 20 28 11 15 1013.5 1012.8 0.0
29/05:30am 17.9 13.6 7.9 52 5.1 E 20 30 11 16 1013.4 1012.7 0.0
29/05:00am 17.4 13.3 8.0 54 4.8 ESE 19 26 10 14 1013.2 1012.5 0.0
29/04:30am 17.7 13.4 7.7 52 5.1 E 20 26 11 14 1012.9 1012.2 0.0
29/04:00am 18.0 12.9 7.7 51 5.3 E 24 30 13 16 1012.9 1012.2 0.0
29/03:30am 18.1 13.0 7.8 51 5.3 E 24 32 13 17 1012.7 1012.0 0.0
29/03:00am 18.4 13.5 8.4 52 5.2 E 24 33 13 18 1012.7 1012.0 0.0
29/02:30am 19.0 13.5 9.2 53 5.2 ENE 28 37 15 20 1012.7 1012.0 0.0
29/02:00am 19.7 14.9 10.4 55 5.1 E 26 33 14 18 1012.7 1012.0 0.0
29/01:30am 20.2 17.4 11.4 57 4.9 E 17 20 9 11 1012.9 1012.2 0.0
29/01:00am 20.7 16.9 11.1 54 5.3 ENE 22 28 12 15 1012.7 1012.0 0.0
29/12:30am 20.2 17.7 10.9 55 5.1 ENE 15 19 8 10 1012.7 1012.0 0.0
29/12:00am 21.2 17.8 10.7 51 5.8 E 19 26 10 14 1012.6 1011.9 0.0
 
Date/Time
EDT
Temp
°C
App
Temp
°C
Dew
Point
Rel
Hum
%
Delta-T
°C
Wind Press
QNH
hPa
Press
MSL
hPa
Rain
since 9 am
mm
Dir
 
Spd
km/h
Gust
km/h
Spd
kts
Gust
kts
28/11:30pm 21.8 19.1 11.8 53 5.6 E 17 22 9 12 1012.2 1011.5 0.0
28/11:00pm 22.4 20.4 10.2 46 6.7 SE 11 13 6 7 1011.8 1011.1 0.0
28/10:30pm 22.5 20.8 10.0 45 6.8 E 9 9 5 5 1011.8 1011.1 0.0
28/10:00pm 22.5 20.5 10.0 45 6.8 NE 11 13 6 7 1011.7 1011.0 0.0
28/09:30pm 23.6 21.6 10.3 43 7.4 ENE 11 15 6 8 1011.5 1010.8 0.0
28/09:00pm 25.5 21.9 8.5 34 9.2 E 17 30 9 16 1011.3 1010.6 0.0
28/08:30pm 26.1 23.9 9.4 35 9.2 ESE 11 13 6 7 1011.1 1010.4 0.0
28/08:00pm 27.2 24.9 9.1 32 10.0 SE 11 13 6 7 1010.8 1010.1 0.0
28/07:30pm 27.5 23.9 8.4 30 10.4 E 17 20 9 11 1010.6 1009.9 0.0
28/07:00pm 28.4 25.4 9.2 30 10.7 ESE 15 22 8 12 1010.3 1009.6 0.0
28/06:30pm 28.4 25.8 9.2 30 10.7 ESE 13 20 7 11 1010.1 1009.4 0.0
28/06:00pm 28.6 25.4 9.8 31 10.6 ESE 17 24 9 13 1010.1 1009.4 0.0
28/05:30pm 28.2 25.6 9.5 31 10.5 ESE 13 19 7 10 1010.3 1009.6 0.0
28/05:00pm 28.6 24.6 10.3 32 10.4 ESE 22 30 12 16 1010.6 1009.9 0.0
28/04:30pm 28.8 24.8 10.5 32 10.4 ESE 22 32 12 17 1010.6 1009.9 0.0
28/04:00pm 28.1 24.4 10.3 33 10.1 ESE 20 33 11 18 1010.9 1010.2 0.0
28/03:30pm 28.7 24.5 9.9 31 10.6 ESE 22 37 12 20 1011.1 1010.4 0.0
28/03:00pm 28.5 24.9 10.7 33 10.2 E 20 37 11 20 1011.3 1010.6 0.0
28/02:30pm 27.9 23.9 10.6 34 9.8 ESE 22 37 12 20 1011.7 1011.0 0.0
28/02:00pm 26.7 22.9 11.2 38 8.9 ESE 22 33 12 18 1012.0 1011.3 0.0
28/01:30pm 26.6 21.6 11.1 38 8.8 ESE 28 41 15 22 1012.1 1011.4 0.0
28/01:00pm 26.4 21.5 11.3 39 8.6 E 28 39 15 21 1012.3 1011.6 0.0
28/12:30pm 27.1 23.9 12.0 39 8.7 ENE 20 37 11 20 1012.3 1011.6 0.0
28/12:00pm 26.4 23.3 12.1 41 8.3 E 20 26 11 14 1012.4 1011.7 0.0
28/11:30am 25.3 21.7 11.8 43 7.7 E 22 33 12 18 1012.7 1012.0 0.0
28/11:00am 25.0 21.0 11.9 44 7.5 ENE 24 32 13 17 1012.8 1012.1 0.0
28/10:30am 24.1 19.7 11.8 46 7.0 E 26 33 14 18 1012.8 1012.1 0.0
28/10:00am 22.9 17.7 11.6 49 6.4 E 30 37 16 20 1012.6 1011.9 0.0
28/09:30am 22.3 16.7 11.4 50 6.1 ENE 32 41 17 22 1012.5 1011.8 0.0
28/09:00am 21.5 15.8 11.2 52 5.7 E 32 41 17 22 1012.7 1012.0 0.0
28/08:30am 20.7 15.0 11.3 55 5.2 E 32 39 17 21 1012.5 1011.8 0.0
28/08:00am 20.5 15.2 11.2 55 5.1 E 30 37 16 20 1012.3 1011.6 0.0
28/07:30am 19.2 14.4 11.5 61 4.3 E 28 37 15 20 1012.0 1011.3 0.0
28/07:00am 18.8 14.8 11.9 64 3.8 E 24 32 13 17 1011.6 1010.9 0.0
28/06:30am 18.7 15.3 12.5 67 3.5 ESE 22 28 12 15 1011.4 1010.7 0.0
28/06:00am 18.5 15.1 12.5 68 3.4 ESE 22 28 12 15 1011.2 1010.5 0.0
28/05:30am 18.5 15.1 12.5 68 3.4 ESE 22 30 12 16 1010.9 1010.2 0.0
28/05:00am 18.3 15.5 12.5 69 3.3 SE 19 24 10 13 1010.9 1010.2 0.0
28/04:30am 18.5 15.4 12.3 67 3.5 ESE 20 22 11 12 1010.7 1010.0 0.0
28/04:00am 18.6 15.2 12.4 67 3.5 ESE 22 28 12 15 1010.4 1009.7 0.0
28/03:30am 18.9 15.5 12.6 67 3.5 ESE 22 28 12 15 1010.2 1009.5 0.0
28/03:00am 19.3 15.6 12.6 65 3.8 E 24 32 13 17 1010.1 1009.4 0.0
28/02:30am 19.3 17.3 12.6 65 3.8 ESE 15 17 8 9 1010.5 1009.8 0.0
28/02:00am 20.0 18.8 12.7 63 4.1 ESE 11 17 6 9 1010.6 1009.9 0.0
28/01:30am 20.6 17.8 13.1 62 4.3 ESE 20 26 11 14 1010.5 1009.8 0.0
28/01:00am 20.9 18.0 12.8 60 4.6 ESE 20 28 11 15 1010.5 1009.8 0.0
28/12:30am 21.6 18.9 13.0 58 4.9 SE 19 24 10 13 1010.6 1009.9 0.0
28/12:00am 22.3 19.4 12.8 55 5.5 ESE 20 30 11 16 1010.3 1009.6 0.0
 
Date/Time
EDT
Temp
°C
App
Temp
°C
Dew
Point
Rel
Hum
%
Delta-T
°C
Wind Press
QNH
hPa
Press
MSL
hPa
Rain
since 9 am
mm
Dir
 
Spd
km/h
Gust
km/h
Spd
kts
Gust
kts
27/11:30pm 23.0 20.1 12.9 53 5.8 E 20 28 11 15 1009.9 1009.2 0.0
27/11:00pm 23.5 20.7 13.1 52 6.0 ESE 20 26 11 14 1009.6 1008.9 0.0
27/10:30pm 24.4 22.5 13.0 49 6.6 E 15 20 8 11 1009.3 1008.6 0.0
27/10:00pm 25.1 22.1 12.7 46 7.2 E 20 28 11 15 1009.0 1008.3 0.0
27/09:30pm 25.7 22.3 12.5 44 7.7 E 22 30 12 16 1008.5 1007.8 0.0
27/09:00pm 26.7 23.3 12.4 41 8.3 E 22 35 12 19 1008.2 1007.5 0.0
27/08:30pm 28.5 25.5 7.7 27 11.3 SSE 13 17 7 9 1007.5 1006.9 0.0
27/08:00pm 29.2 25.3 7.2 25 11.9 S 17 24 9 13 1007.3 1006.6 0.0
27/07:30pm 29.3 25.8 7.2 25 12.0 SSE 15 19 8 10 1006.9 1006.2 0.0
27/07:00pm 29.6 26.6 7.5 25 12.1 S 13 22 7 12 1006.7 1006.0 0.0
27/06:30pm 29.6 26.6 7.5 25 12.0 S 13 28 7 15 1006.6 1005.9 0.0
27/06:00pm 29.7 26.3 7.6 25 12.1 S 15 20 8 11 1006.5 1005.8 0.0
27/05:30pm 29.8 27.4 7.1 24 12.3 S 9 20 5 11 1006.6 1005.9 0.0
27/05:00pm 29.4 25.9 7.3 25 12.0 SSW 15 26 8 14 1006.9 1006.2 0.0
27/04:30pm 29.0 25.8 7.0 25 11.8 WSW 13 26 7 14 1007.2 1006.5 0.0
27/04:00pm 28.8 26.0 6.8 25 11.8 WSW 11 17 6 9 1007.6 1007.0 0.0
27/03:30pm 28.5 25.7 7.1 26 11.5 SE 11 20 6 11 1008.1 1007.4 0.0
27/03:00pm 28.6 25.5 7.2 26 11.6 S 13 24 7 13 1008.4 1007.7 0.0
27/02:30pm 27.3 23.5 7.7 29 10.6 SSE 17 26 9 14 1008.7 1008.0 0.0
27/02:00pm 26.9 24.2 8.8 32 9.9 W 13 22 7 12 1009.2 1008.5 0.0
27/01:30pm 26.7 23.9 10.0 35 9.3 SSW 15 26 8 14 1009.6 1008.9 0.0
27/01:00pm 26.3 24.9 10.9 38 8.7 SSW 9 22 5 12 1010.1 1009.4 0.0
27/12:30pm 24.8 23.3 10.7 41 7.9 W 9 17 5 9 1010.6 1009.9 0.0
27/12:00pm 24.5 22.7 12.1 46 7.1 SSE 13 24 7 13 1011.0 1010.3 0.0
27/11:30am 24.4 23.5 12.7 48 6.8 SSW 9 19 5 10 1011.1 1010.4 0.0
27/11:00am 23.1 22.0 11.8 49 6.4 ESE 9 17 5 9 1011.5 1010.8 0.0
27/10:30am 22.2 20.2 11.6 51 6.0 ESE 13 20 7 11 1011.7 1011.0 0.0
27/10:00am 21.6 20.5 11.9 54 5.5 E 9 15 5 8 1011.8 1011.1 0.0
27/09:30am 20.4 18.0 10.2 52 5.5 SSE 13 17 7 9 1011.9 1011.2 0.0
27/09:00am 18.9 16.3 9.4 54 5.0 S 13 17 7 9 1011.9 1011.2 0.0
27/08:30am 17.6 15.2 8.5 55 4.7 SSE 11 17 6 9 1011.7 1011.0 0.0
27/08:00am 16.8 13.4 7.7 55 4.6 SE 15 19 8 10 1011.4 1010.7 0.0
27/07:30am 15.8 12.3 7.0 56 4.4 SSE 15 20 8 11 1011.2 1010.5 0.0
27/07:00am 14.6 10.5 6.4 58 4.0 S 17 22 9 12 1011.3 1010.6 0.0
27/06:30am 14.5 10.0 6.1 57 4.1 S 19 24 10 13 1011.2 1010.5 0.0
27/06:00am 14.2 9.6 5.8 57 4.0 S 19 26 10 14 1011.2 1010.5 0.0
27/05:30am 14.2 10.0 5.8 57 4.0 S 17 24 9 13 1011.1 1010.4 0.0
27/05:00am 14.6 10.4 5.7 55 4.3 S 17 20 9 11 1011.0 1010.3 0.0
27/04:30am 14.9 10.7 5.7 54 4.4 S 17 24 9 13 1011.0 1010.3 0.0
27/04:00am 15.2 10.6 5.4 52 4.7 SSE 19 24 10 13 1011.2 1010.5 0.0
27/03:30am 15.5 10.9 5.4 51 4.8 SSE 19 26 10 14 1011.4 1010.7 0.0
27/03:00am 16.0 11.3 5.3 49 5.1 SSE 19 24 10 13 1011.6 1010.9 0.0
27/02:30am 16.3 11.9 5.0 47 5.4 SSE 17 24 9 13 1011.8 1011.1 0.0
27/02:00am 16.4 12.0 4.8 46 5.5 SSE 17 24 9 13 1012.3 1011.6 0.0
27/01:30am 16.9 12.0 4.3 43 6.0 SSE 19 26 10 14 1012.3 1011.6 0.0
27/01:00am 17.4 12.4 3.7 40 6.4 SSE 19 28 10 15 1012.1 1011.4 0.0
27/12:30am 18.5 13.4 2.8 35 7.3 S 19 24 10 13 1012.0 1011.3 0.0
27/12:00am 19.2 14.3 2.1 32 7.9 S 17 24 9 13 1011.8 1011.1 0.0
 
Date/Time
EDT
Temp
°C
App
Temp
°C
Dew
Point
Rel
Hum
%
Delta-T
°C
Wind Press
QNH
hPa
Press
MSL
hPa
Rain
since 9 am
mm
Dir
 
Spd
km/h
Gust
km/h
Spd
kts
Gust
kts
26/11:30pm 20.1 15.2 2.0 30 8.4 S 17 24 9 13 1011.8 1011.1 0.0
26/11:00pm 20.0 15.9 2.4 31 8.2 SSW 13 17 7 9 1011.7 1011.0 0.0
26/10:30pm 20.4 16.3 2.3 30 8.5 SSW 13 17 7 9 1011.7 1011.0 0.0
26/10:00pm 20.9 17.2 2.2 29 8.8 SSW 11 13 6 7 1011.5 1010.8 0.0
26/09:30pm 21.5 17.7 1.7 27 9.2 S 11 13 6 7 1011.2 1010.5 0.0
26/09:00pm 22.3 18.5 1.9 26 9.6 S 11 15 6 8 1011.0 1010.3 0.0
26/08:30pm 23.2 19.4 1.5 24 10.2 SSW 11 15 6 8 1010.9 1010.2 0.0
26/08:00pm 24.6 19.6 1.5 22 11.0 SSW 17 22 9 12 1010.7 1010.0 0.0
26/07:30pm 25.6 21.3 1.0 20 11.7 SSW 13 20 7 11 1010.4 1009.7 0.0
26/07:00pm 26.1 21.5 1.4 20 11.8 SW 15 22 8 12 1010.1 1009.4 0.0
26/06:30pm 26.4 21.6 0.2 18 12.3 SSW 15 22 8 12 1010.0 1009.3 0.0
26/06:00pm 26.2 21.4 0.0 18 12.3 SSW 15 28 8 15 1010.0 1009.3 0.0
26/05:30pm 26.6 21.9 1.1 19 12.2 SW 15 28 8 15 1010.2 1009.5 0.0

Other Formats:

Comma delimited format used in spreadsheet applications
http://www.bom.gov.au/fwo/IDN60801/IDN60801.95704.axf

JavaScript Object Notation format (JSON) in row-major order
http://www.bom.gov.au/fwo/IDN60801/IDN60801.95704.json